createdAt,value
2023-05-13T00:03:01.920Z,3.90
2023-05-13T00:08:07.201Z,4.50
2023-05-13T00:13:08.969Z,4.82
2023-05-13T00:18:11.135Z,4.65
2023-05-13T00:23:12.820Z,4.77
2023-05-13T00:28:15.135Z,6.03
2023-05-13T00:33:17.302Z,4.40
2023-05-13T00:38:19.021Z,5.22
2023-05-13T00:43:21.505Z,5.38
2023-05-13T00:48:23.676Z,5.75
2023-05-13T00:53:25.569Z,5.93
2023-05-13T00:58:27.522Z,6.97
2023-05-13T01:03:39.337Z,4.87
2023-05-13T01:08:40.998Z,3.53
2023-05-13T01:13:47.960Z,5.40
2023-05-13T01:18:56.559Z,4.45
2023-05-13T01:23:59.451Z,4.72
2023-05-13T01:29:01.274Z,5.13
2023-05-13T01:34:03.797Z,5.25
2023-05-13T01:39:06.245Z,6.65
2023-05-13T01:44:08.720Z,5.35
2023-05-13T01:49:10.701Z,5.47
2023-05-13T01:54:12.509Z,6.70
2023-05-13T01:59:19.962Z,5.40
2023-05-13T02:04:22.123Z,7.97
2023-05-13T02:09:24.372Z,5.65
2023-05-13T02:14:26.383Z,5.50
2023-05-13T02:19:28.092Z,6.78
2023-05-13T02:24:31.083Z,6.20
2023-05-13T02:29:34.091Z,4.32
2023-05-13T02:34:35.968Z,5.18
2023-05-13T02:39:38.179Z,4.90
2023-05-13T02:44:40.471Z,7.30
2023-05-13T02:49:43.676Z,5.70
2023-05-13T02:54:47.937Z,6.60
2023-05-13T02:59:50.244Z,5.10
2023-05-13T03:04:52.201Z,8.77
2023-05-13T03:09:54.098Z,4.97
2023-05-13T03:14:56.461Z,5.20
2023-05-13T03:19:58.269Z,5.18
2023-05-13T03:25:00.129Z,5.80
2023-05-13T03:30:08.599Z,6.70
2023-05-13T03:35:17.772Z,5.45
2023-05-13T03:40:19.757Z,7.53
2023-05-13T03:45:22.116Z,6.05
2023-05-13T03:50:26.407Z,7.90
2023-05-13T03:55:28.333Z,7.57
2023-05-13T04:00:30.363Z,7.15
2023-05-13T04:05:32.693Z,6.15
2023-05-13T04:10:34.782Z,8.17
2023-05-13T04:15:36.848Z,10.77
2023-05-13T04:20:41.049Z,8.75
2023-05-13T04:25:43.268Z,9.02
2023-05-13T04:30:45.277Z,9.05
2023-05-13T04:40:49.624Z,9.85
2023-05-13T04:45:57.969Z,8.95
2023-05-13T04:50:59.988Z,8.73
2023-05-13T04:56:02.417Z,7.90
2023-05-13T05:06:07.404Z,7.35
2023-05-13T05:11:10.695Z,7.05
2023-05-13T05:16:12.752Z,8.02
2023-05-13T05:21:15.008Z,6.93
2023-05-13T05:26:17.417Z,6.65
2023-05-13T05:31:19.383Z,7.22
2023-05-13T05:36:21.764Z,7.15
2023-05-13T05:41:23.616Z,7.80
2023-05-13T05:46:26.234Z,7.97
2023-05-13T05:51:28.722Z,11.23
2023-05-13T05:56:30.564Z,7.00
2023-05-13T06:01:36.831Z,7.13
2023-05-13T06:06:40.456Z,7.70
2023-05-13T06:11:42.764Z,10.00
2023-05-13T06:16:45.073Z,9.32
2023-05-13T06:21:46.879Z,9.40
2023-05-13T06:26:49.000Z,6.60
2023-05-13T06:31:50.854Z,7.25
2023-05-13T06:36:52.651Z,7.17
2023-05-13T06:41:55.625Z,8.13
2023-05-13T06:47:03.018Z,8.55
2023-05-13T06:52:05.540Z,9.27
2023-05-13T06:57:07.457Z,9.60
2023-05-13T07:02:09.954Z,7.87
2023-05-13T07:07:11.824Z,6.13
2023-05-13T07:12:14.460Z,7.57
2023-05-13T07:17:17.174Z,6.63
2023-05-13T07:22:19.089Z,6.57
2023-05-13T07:27:21.798Z,6.78
2023-05-13T07:32:23.819Z,5.72
2023-05-13T07:37:25.550Z,9.30
2023-05-13T07:42:29.846Z,7.65
2023-05-13T07:47:32.041Z,5.80
2023-05-13T07:52:36.951Z,5.75
2023-05-13T07:57:38.679Z,6.60
2023-05-13T08:02:42.780Z,6.28
2023-05-13T08:07:46.240Z,5.43
2023-05-13T08:13:02.782Z,5.82
2023-05-13T08:18:09.043Z,7.53
2023-05-13T08:23:13.623Z,6.15
2023-05-13T08:28:17.885Z,5.53
2023-05-13T08:33:25.481Z,5.40
2023-05-13T08:38:27.267Z,4.57
2023-05-13T08:43:30.547Z,5.63
2023-05-13T08:48:33.793Z,4.70
2023-05-13T08:53:36.295Z,6.53
2023-05-13T08:58:39.209Z,5.65
2023-05-13T09:03:57.852Z,7.03
2023-05-13T09:08:59.729Z,4.57
2023-05-13T09:14:03.689Z,5.95
2023-05-13T09:19:07.581Z,5.22
2023-05-13T09:24:18.407Z,4.65
2023-05-13T09:29:30.350Z,6.22
2023-05-13T09:34:34.263Z,5.88
2023-05-13T09:39:41.301Z,5.47
2023-05-13T09:44:46.675Z,6.13
2023-05-13T09:49:56.157Z,5.03
2023-05-13T09:54:59.508Z,6.03
2023-05-13T10:00:05.095Z,5.82
2023-05-13T10:05:12.679Z,4.00
2023-05-13T10:10:14.964Z,4.15
2023-05-13T10:15:17.472Z,4.32
2023-05-13T10:20:19.659Z,4.35
2023-05-13T10:25:22.348Z,4.67
2023-05-13T10:30:26.587Z,4.82
2023-05-13T10:35:37.121Z,4.05
2023-05-13T10:41:17.416Z,3.65
2023-05-13T10:46:19.415Z,5.60
2023-05-13T10:51:24.563Z,5.53
2023-05-13T10:56:28.837Z,3.22
2023-05-13T11:01:43.186Z,4.03
2023-05-13T11:06:46.448Z,6.90
2023-05-13T11:11:53.072Z,3.40
2023-05-13T11:17:01.116Z,3.40
2023-05-13T11:22:12.800Z,4.80
2023-05-13T11:27:18.509Z,3.88
2023-05-13T11:32:54.264Z,7.35
2023-05-13T11:37:59.834Z,3.67
2023-05-13T11:43:02.411Z,2.67
2023-05-13T11:48:22.082Z,3.37
2023-05-13T11:53:23.864Z,3.22
2023-05-13T11:58:25.829Z,3.30
2023-05-13T12:03:28.320Z,2.90
2023-05-13T12:08:30.466Z,2.75
2023-05-13T12:13:32.285Z,3.43
2023-05-13T12:18:34.524Z,3.25
2023-05-13T12:23:40.813Z,2.97
2023-05-13T12:28:42.746Z,3.28
2023-05-13T12:33:47.275Z,4.90
2023-05-13T12:39:00.710Z,3.08
2023-05-13T12:44:10.988Z,2.70
2023-05-13T12:49:15.048Z,2.80
2023-05-13T12:54:17.262Z,3.50
2023-05-13T12:59:19.331Z,5.05
2023-05-13T13:04:21.105Z,3.47
2023-05-13T13:09:22.995Z,4.47
2023-05-13T13:14:26.107Z,2.47
2023-05-13T13:19:27.860Z,2.70
2023-05-13T13:24:29.997Z,3.53
2023-05-13T13:29:32.336Z,2.90
2023-05-13T13:34:34.096Z,4.72
2023-05-13T13:39:35.860Z,5.53
2023-05-13T13:44:39.444Z,3.67
2023-05-13T13:49:41.288Z,14.50
2023-05-13T13:54:43.087Z,2.67
2023-05-13T13:59:44.786Z,2.72
2023-05-13T14:04:46.528Z,2.65
2023-05-13T14:09:50.021Z,4.63
2023-05-13T14:14:51.839Z,2.22
2023-05-13T14:19:55.398Z,3.08
2023-05-13T14:24:58.920Z,3.03
2023-05-13T14:30:00.971Z,3.78
2023-05-13T14:35:02.680Z,3.73
2023-05-13T14:40:04.886Z,3.67
2023-05-13T14:45:07.327Z,3.55
2023-05-13T14:50:09.177Z,3.40
2023-05-13T14:55:11.299Z,4.37
2023-05-13T15:00:14.161Z,5.20
2023-05-13T15:05:16.043Z,3.45
2023-05-13T15:10:17.864Z,3.90
2023-05-13T15:15:20.063Z,3.00
2023-05-13T15:20:24.367Z,14.55
2023-05-13T15:25:26.320Z,4.40
2023-05-13T15:30:28.826Z,6.78
2023-05-13T15:35:30.586Z,3.72
2023-05-13T15:40:34.388Z,3.25
2023-05-13T15:45:36.417Z,4.23
2023-05-13T15:50:38.241Z,3.60
2023-05-13T15:55:40.196Z,3.50
2023-05-13T16:00:42.115Z,3.45
2023-05-13T16:05:44.074Z,3.20
2023-05-13T16:10:45.820Z,4.73
2023-05-13T16:15:47.568Z,3.72
2023-05-13T16:20:51.419Z,13.20
2023-05-13T16:25:53.639Z,3.70
2023-05-13T16:30:57.306Z,3.85
2023-05-13T16:36:00.276Z,2.75
2023-05-13T16:41:01.936Z,2.72
2023-05-13T16:46:04.086Z,3.10
2023-05-13T16:51:05.785Z,3.33
2023-05-13T16:56:07.608Z,4.63
2023-05-13T17:01:09.525Z,4.50
2023-05-13T17:06:13.112Z,6.13
2023-05-13T17:11:17.964Z,5.55
2023-05-13T17:16:19.694Z,3.38
2023-05-13T17:26:24.377Z,3.03
2023-05-13T17:31:27.398Z,7.73
2023-05-13T17:36:29.312Z,6.97
2023-05-13T17:41:31.329Z,5.10
2023-05-13T17:46:33.053Z,3.07
2023-05-13T17:51:34.741Z,3.92
2023-05-13T17:56:36.403Z,3.25
2023-05-13T18:01:38.475Z,5.30
2023-05-13T18:06:40.227Z,2.90
2023-05-13T18:11:41.923Z,2.85
2023-05-13T18:16:43.944Z,3.73
2023-05-13T18:21:46.637Z,3.40
2023-05-13T18:26:48.435Z,3.80
2023-05-13T18:31:50.160Z,10.32
2023-05-13T18:36:52.493Z,19.38
2023-05-13T18:41:54.277Z,7.40
2023-05-13T18:46:56.014Z,4.95
2023-05-13T18:51:57.927Z,6.23
2023-05-13T18:57:00.450Z,5.50
2023-05-13T19:02:02.330Z,11.77
2023-05-13T19:07:04.423Z,8.60
2023-05-13T19:12:07.520Z,8.50
2023-05-13T19:22:11.091Z,11.23
2023-05-13T19:27:12.897Z,9.88
2023-05-13T19:32:15.205Z,7.05
2023-05-13T19:37:17.036Z,7.07
2023-05-13T19:42:19.002Z,6.18
2023-05-13T19:47:21.148Z,6.07
2023-05-13T19:52:22.824Z,4.13
2023-05-13T19:57:24.499Z,6.28
2023-05-13T20:02:26.787Z,6.20
2023-05-13T20:07:29.172Z,5.20
2023-05-13T20:12:31.575Z,8.02
2023-05-13T20:17:33.407Z,8.05
2023-05-13T20:22:35.266Z,7.07
2023-05-13T20:27:37.166Z,8.47
2023-05-13T20:32:39.124Z,10.77
2023-05-13T20:37:40.869Z,11.23
2023-05-13T20:42:42.679Z,12.70
2023-05-13T20:47:44.842Z,10.50
2023-05-13T20:52:47.007Z,15.23
2023-05-13T20:57:50.435Z,13.18
2023-05-13T21:02:53.529Z,16.60
2023-05-13T21:12:57.260Z,12.45
2023-05-13T21:17:59.539Z,15.38
2023-05-13T21:23:01.408Z,11.98
2023-05-13T21:28:03.808Z,12.25
2023-05-13T21:33:05.655Z,12.35
2023-05-13T21:38:12.173Z,14.60
2023-05-13T21:43:14.488Z,13.05
2023-05-13T21:48:16.602Z,14.07
2023-05-13T21:53:18.406Z,15.97
2023-05-13T21:58:21.916Z,14.07
2023-05-13T22:03:26.341Z,12.95
2023-05-13T22:08:29.420Z,12.75
2023-05-13T22:13:31.630Z,12.55
2023-05-13T22:18:33.649Z,12.80
2023-05-13T22:23:35.772Z,14.63
2023-05-13T22:28:37.479Z,13.65
2023-05-13T22:33:39.345Z,14.20
2023-05-13T22:38:42.082Z,11.68
2023-05-13T22:48:46.074Z,11.60
2023-05-13T22:53:48.063Z,12.20
2023-05-13T22:58:49.801Z,11.85
2023-05-13T23:03:52.239Z,13.93
2023-05-13T23:08:54.032Z,12.00
2023-05-13T23:13:55.789Z,13.30
2023-05-13T23:18:58.032Z,12.88
2023-05-13T23:23:59.961Z,11.73
2023-05-13T23:29:02.279Z,12.23
2023-05-13T23:34:04.466Z,15.20
2023-05-13T23:39:06.299Z,13.57
2023-05-13T23:44:08.016Z,11.55
2023-05-13T23:49:09.862Z,13.02
2023-05-13T23:54:11.764Z,13.73
2023-05-13T23:59:13.485Z,12.65
